createdAt,value
2022-08-27T00:01:16.395Z,20.86
2022-08-27T00:03:45.086Z,20.88
2022-08-27T00:06:14.703Z,20.88
2022-08-27T00:08:45.651Z,20.89
2022-08-27T00:11:13.188Z,20.90
2022-08-27T00:13:40.191Z,20.91
2022-08-27T00:16:09.960Z,20.94
2022-08-27T00:18:38.483Z,20.98
2022-08-27T00:21:05.068Z,20.99
2022-08-27T00:23:34.542Z,20.99
2022-08-27T00:26:01.415Z,21.01
2022-08-27T00:28:29.894Z,21.01
2022-08-27T00:30:56.874Z,21.01
2022-08-27T00:33:24.511Z,21.03
2022-08-27T00:35:51.621Z,21.04
2022-08-27T00:38:19.400Z,21.05
2022-08-27T00:40:46.772Z,21.06
2022-08-27T00:43:13.815Z,21.06
2022-08-27T00:45:45.133Z,21.04
2022-08-27T00:48:15.983Z,21.04
2022-08-27T00:50:52.637Z,21.02
2022-08-27T00:53:23.159Z,20.98
2022-08-27T00:55:55.080Z,20.97
2022-08-27T00:58:33.886Z,20.98
2022-08-27T01:01:01.985Z,20.99
2022-08-27T01:03:28.606Z,20.99
2022-08-27T01:05:59.084Z,20.97
2022-08-27T01:08:29.386Z,20.96
2022-08-27T01:10:58.414Z,20.93
2022-08-27T01:13:58.711Z,20.91
2022-08-27T01:16:27.012Z,20.89
2022-08-27T01:18:55.838Z,20.88
2022-08-27T01:21:32.879Z,20.85
2022-08-27T01:24:21.816Z,20.86
2022-08-27T01:26:49.377Z,20.83
2022-08-27T01:29:17.480Z,20.83
2022-08-27T01:31:44.265Z,20.81
2022-08-27T01:34:10.882Z,20.77
2022-08-27T01:36:37.415Z,20.78
2022-08-27T01:39:04.171Z,20.81
2022-08-27T01:41:31.974Z,20.76
2022-08-27T01:43:58.637Z,20.73
2022-08-27T01:46:27.780Z,20.71
2022-08-27T01:48:55.273Z,20.75
2022-08-27T01:51:22.338Z,20.82
2022-08-27T01:53:48.961Z,20.87
2022-08-27T01:56:15.596Z,20.88
2022-08-27T01:58:43.653Z,20.89
2022-08-27T02:01:14.386Z,20.87
2022-08-27T02:03:41.307Z,20.84
2022-08-27T02:06:10.717Z,20.83
2022-08-27T02:08:37.776Z,20.82
2022-08-27T02:11:05.124Z,20.78
2022-08-27T02:13:31.786Z,20.80
2022-08-27T02:15:58.407Z,20.81
2022-08-27T02:18:25.056Z,20.81
2022-08-27T02:20:51.712Z,20.80
2022-08-27T02:23:18.713Z,20.78
2022-08-27T02:25:48.519Z,20.76
2022-08-27T02:28:15.192Z,20.72
2022-08-27T02:30:41.773Z,20.68
2022-08-27T02:33:10.473Z,20.68
2022-08-27T02:35:43.072Z,20.66
2022-08-27T02:38:10.820Z,20.64
2022-08-27T02:40:37.679Z,20.64
2022-08-27T02:43:05.014Z,20.58
2022-08-27T02:45:31.665Z,20.53
2022-08-27T02:47:58.241Z,20.51
2022-08-27T02:50:27.430Z,20.51
2022-08-27T02:52:54.779Z,20.50
2022-08-27T02:55:22.526Z,20.51
2022-08-27T02:57:49.369Z,20.49
2022-08-27T03:00:19.010Z,20.46
2022-08-27T03:02:45.670Z,20.43
2022-08-27T03:05:13.204Z,20.42
2022-08-27T03:07:40.258Z,20.39
2022-08-27T03:10:07.828Z,20.38
2022-08-27T03:12:36.320Z,20.39
2022-08-27T03:15:08.276Z,20.38
2022-08-27T03:17:53.517Z,20.37
2022-08-27T03:20:20.177Z,20.34
2022-08-27T03:22:46.977Z,20.34
2022-08-27T03:25:16.077Z,20.34
2022-08-27T03:27:42.756Z,20.34
2022-08-27T03:30:19.339Z,20.32
2022-08-27T03:32:46.561Z,20.30
2022-08-27T03:35:14.437Z,20.25
2022-08-27T03:37:41.237Z,20.26
2022-08-27T03:40:08.322Z,20.26
2022-08-27T03:42:35.395Z,20.24
2022-08-27T03:45:02.013Z,20.22
2022-08-27T03:47:28.562Z,20.22
2022-08-27T03:49:55.357Z,20.24
2022-08-27T03:52:22.346Z,20.23
2022-08-27T03:54:48.869Z,20.26
2022-08-27T03:57:15.477Z,20.28
2022-08-27T03:59:41.993Z,20.26
2022-08-27T04:02:08.681Z,20.27
2022-08-27T04:04:35.593Z,20.28
2022-08-27T04:07:02.142Z,20.28
2022-08-27T04:09:28.646Z,20.29
2022-08-27T04:11:55.383Z,20.29
2022-08-27T04:14:26.376Z,20.27
2022-08-27T04:16:54.961Z,20.22
2022-08-27T04:19:26.974Z,20.20
2022-08-27T04:21:54.012Z,20.18
2022-08-27T04:24:20.482Z,20.16
2022-08-27T04:26:47.754Z,20.17
2022-08-27T04:29:14.256Z,20.15
2022-08-27T04:31:40.815Z,20.17
2022-08-27T04:34:07.753Z,20.12
2022-08-27T04:36:34.373Z,20.09
2022-08-27T04:39:01.232Z,20.07
2022-08-27T04:41:28.969Z,20.08
2022-08-27T04:43:57.724Z,20.08
2022-08-27T04:46:29.782Z,20.04
2022-08-27T04:48:57.888Z,19.99
2022-08-27T04:51:25.513Z,19.98
2022-08-27T04:53:52.629Z,19.95
2022-08-27T04:56:22.310Z,19.95
2022-08-27T04:58:50.598Z,19.95
2022-08-27T05:01:19.615Z,19.93
2022-08-27T05:03:46.449Z,19.92
2022-08-27T05:06:13.314Z,19.94
2022-08-27T05:08:41.068Z,19.98
2022-08-27T05:11:10.917Z,20.02
2022-08-27T05:13:38.080Z,20.07
2022-08-27T05:16:07.692Z,20.12
2022-08-27T05:18:42.263Z,20.13
2022-08-27T05:21:27.336Z,20.13
2022-08-27T05:23:56.492Z,20.14
2022-08-27T05:26:23.364Z,20.15
2022-08-27T05:28:50.192Z,20.18
2022-08-27T05:31:17.882Z,20.17
2022-08-27T05:33:44.514Z,20.15
2022-08-27T05:36:17.618Z,20.19
2022-08-27T05:38:44.470Z,20.24
2022-08-27T05:41:14.910Z,20.27
2022-08-27T05:43:45.373Z,20.30
2022-08-27T05:46:16.961Z,20.31
2022-08-27T05:48:44.776Z,20.36
2022-08-27T05:51:25.648Z,20.37
2022-08-27T05:54:04.549Z,20.39
2022-08-27T05:56:36.156Z,20.39
2022-08-27T05:59:21.362Z,20.34
2022-08-27T06:01:50.153Z,20.30
2022-08-27T06:04:18.238Z,20.31
2022-08-27T06:06:46.049Z,20.36
2022-08-27T06:09:16.647Z,20.47
2022-08-27T06:11:43.545Z,20.54
2022-08-27T06:14:10.377Z,20.62
2022-08-27T06:16:38.250Z,20.72
2022-08-27T06:19:05.565Z,20.77
2022-08-27T06:21:32.364Z,20.82
2022-08-27T06:23:58.908Z,20.86
2022-08-27T06:26:26.800Z,20.85
2022-08-27T06:28:54.160Z,20.94
2022-08-27T06:31:26.607Z,21.07
2022-08-27T06:33:58.065Z,21.21
2022-08-27T06:36:27.564Z,21.28
2022-08-27T06:38:54.568Z,21.32
2022-08-27T06:41:24.115Z,21.28
2022-08-27T06:43:51.871Z,21.31
2022-08-27T06:46:25.166Z,21.30
2022-08-27T06:48:56.451Z,21.33
2022-08-27T06:51:26.281Z,21.33
2022-08-27T06:53:55.207Z,21.32
2022-08-27T06:56:22.500Z,21.37
2022-08-27T06:58:53.390Z,21.41
2022-08-27T07:01:24.204Z,21.44
2022-08-27T07:03:51.009Z,21.46
2022-08-27T07:06:18.127Z,21.54
2022-08-27T07:08:52.998Z,21.63
2022-08-27T07:11:20.967Z,21.68
2022-08-27T07:13:48.521Z,21.76
2022-08-27T07:16:17.799Z,21.80
2022-08-27T07:18:45.411Z,21.82
2022-08-27T07:21:12.627Z,21.82
2022-08-27T07:23:39.883Z,21.88
2022-08-27T07:26:10.949Z,21.97
2022-08-27T07:28:39.159Z,22.01
2022-08-27T07:31:09.050Z,22.00
2022-08-27T07:33:37.233Z,22.00
2022-08-27T07:36:06.220Z,21.95
2022-08-27T07:38:33.352Z,21.96
2022-08-27T07:41:04.913Z,21.98
2022-08-27T07:43:50.294Z,21.98
2022-08-27T07:46:24.198Z,21.99
2022-08-27T07:48:51.224Z,22.00
2022-08-27T07:51:20.652Z,22.08
2022-08-27T07:53:47.665Z,22.14
2022-08-27T07:56:14.213Z,22.22
2022-08-27T07:58:41.409Z,22.27
2022-08-27T08:01:08.044Z,22.37
2022-08-27T08:03:35.096Z,22.42
2022-08-27T08:06:08.003Z,22.42
2022-08-27T08:08:36.240Z,22.46
2022-08-27T08:11:06.288Z,22.52
2022-08-27T08:13:32.943Z,22.56
2022-08-27T08:15:59.472Z,22.56
2022-08-27T08:18:27.365Z,22.59
2022-08-27T08:20:58.964Z,22.62
2022-08-27T08:23:26.286Z,22.52
2022-08-27T08:25:52.849Z,22.38
2022-08-27T08:28:19.342Z,22.18
2022-08-27T08:30:47.687Z,22.08
2022-08-27T08:33:14.264Z,22.05
2022-08-27T08:35:41.340Z,22.07
2022-08-27T08:38:09.082Z,22.15
2022-08-27T08:40:40.987Z,22.18
2022-08-27T08:43:18.425Z,22.31
2022-08-27T08:45:45.887Z,22.41
2022-08-27T08:48:17.854Z,22.60
2022-08-27T08:51:24.153Z,22.84
2022-08-27T08:54:07.007Z,22.98
2022-08-27T08:56:55.088Z,23.05
2022-08-27T08:59:30.028Z,23.04
2022-08-27T09:01:58.661Z,23.08
2022-08-27T09:04:27.095Z,23.14
2022-08-27T09:07:11.448Z,23.21
2022-08-27T09:10:14.404Z,23.29
2022-08-27T09:12:41.485Z,23.31
2022-08-27T09:15:12.472Z,23.33
2022-08-27T09:17:41.831Z,23.37
2022-08-27T09:20:13.230Z,23.39
2022-08-27T09:23:22.210Z,23.38
2022-08-27T09:25:48.796Z,23.44
2022-08-27T09:28:39.367Z,23.52
2022-08-27T09:31:09.730Z,23.61
2022-08-27T09:33:46.066Z,23.66
2022-08-27T09:36:24.159Z,23.79
2022-08-27T09:38:58.573Z,23.93
2022-08-27T09:44:09.368Z,24.09
2022-08-27T09:46:36.250Z,24.18
2022-08-27T09:49:14.318Z,24.30
2022-08-27T09:51:44.115Z,24.41
2022-08-27T09:54:11.881Z,24.40
2022-08-27T09:56:41.876Z,24.34
2022-08-27T09:59:08.310Z,24.21
2022-08-27T10:01:49.965Z,24.23
2022-08-27T10:04:24.084Z,24.32
2022-08-27T10:06:51.678Z,24.42
2022-08-27T10:09:35.489Z,24.55
2022-08-27T10:12:10.513Z,24.68
2022-08-27T10:14:58.836Z,24.82
2022-08-27T10:17:36.412Z,24.96
2022-08-27T10:20:30.301Z,24.98
2022-08-27T10:23:10.546Z,25.01
2022-08-27T10:25:42.500Z,25.04
2022-08-27T10:28:40.291Z,25.12
2022-08-27T10:31:25.160Z,25.18
2022-08-27T10:34:01.274Z,25.25
2022-08-27T10:36:57.150Z,25.40
2022-08-27T10:39:45.440Z,25.66
2022-08-27T10:42:26.204Z,25.85
2022-08-27T10:45:11.546Z,25.93
2022-08-27T10:48:25.603Z,26.10
2022-08-27T10:51:08.635Z,26.19
2022-08-27T10:53:46.228Z,26.29
2022-08-27T10:56:30.687Z,26.46
2022-08-27T10:59:21.517Z,26.47
2022-08-27T11:02:20.414Z,26.47
2022-08-27T11:04:51.272Z,26.52
2022-08-27T11:07:24.564Z,26.42
2022-08-27T11:09:58.528Z,26.18
2022-08-27T11:12:38.916Z,26.00
2022-08-27T11:15:13.025Z,25.87
2022-08-27T11:18:04.688Z,25.69
2022-08-27T11:20:40.760Z,25.53
2022-08-27T11:23:12.229Z,25.40
2022-08-27T11:25:50.483Z,25.34
2022-08-27T11:28:21.314Z,25.34
2022-08-27T11:31:11.481Z,25.27
2022-08-27T11:33:47.362Z,25.26
2022-08-27T11:36:23.175Z,25.30
2022-08-27T11:39:04.896Z,25.43
2022-08-27T11:41:45.539Z,25.46
2022-08-27T11:44:14.950Z,25.48
2022-08-27T11:46:48.511Z,25.54
2022-08-27T11:49:40.993Z,25.61
2022-08-27T11:52:09.095Z,25.73
2022-08-27T11:55:10.994Z,25.77
2022-08-27T11:57:38.300Z,25.85
2022-08-27T12:00:20.194Z,25.91
2022-08-27T12:03:05.453Z,26.04
2022-08-27T12:05:37.943Z,26.16
2022-08-27T12:08:22.956Z,26.36
2022-08-27T12:11:34.437Z,26.63
2022-08-27T12:14:14.592Z,26.79
2022-08-27T12:16:57.664Z,26.89
2022-08-27T12:19:59.163Z,26.91
2022-08-27T12:23:13.417Z,26.99
2022-08-27T12:25:39.978Z,27.10
2022-08-27T12:28:09.197Z,27.25
2022-08-27T12:30:39.135Z,27.29
2022-08-27T12:33:27.068Z,27.39
2022-08-27T12:35:56.345Z,27.39
2022-08-27T12:38:34.894Z,27.23
2022-08-27T12:41:09.193Z,27.01
2022-08-27T12:43:38.332Z,27.05
2022-08-27T12:46:11.005Z,27.03
2022-08-27T12:48:42.370Z,26.99
2022-08-27T12:51:14.041Z,27.03
2022-08-27T12:54:08.341Z,27.04
2022-08-27T12:57:14.009Z,27.32
2022-08-27T13:00:12.908Z,27.43
2022-08-27T13:02:49.607Z,27.52
2022-08-27T13:05:22.621Z,27.70
2022-08-27T13:07:51.183Z,27.92
2022-08-27T13:10:20.548Z,28.13
2022-08-27T13:12:48.696Z,28.18
2022-08-27T13:15:19.276Z,28.17
2022-08-27T13:17:47.368Z,28.25
2022-08-27T13:20:14.440Z,28.20
2022-08-27T13:22:43.466Z,28.06
2022-08-27T13:25:20.988Z,27.76
2022-08-27T13:27:56.994Z,27.64
2022-08-27T13:30:35.702Z,27.58
2022-08-27T13:33:05.083Z,27.55
2022-08-27T13:35:32.494Z,27.69
2022-08-27T13:38:01.109Z,27.83
2022-08-27T13:40:37.016Z,28.00
2022-08-27T13:43:10.473Z,28.12
2022-08-27T13:45:41.841Z,28.35
2022-08-27T13:48:12.531Z,28.45
2022-08-27T13:50:49.387Z,28.63
2022-08-27T13:53:39.946Z,28.77
2022-08-27T13:56:07.276Z,28.95
2022-08-27T13:58:35.478Z,28.90
2022-08-27T14:01:14.938Z,29.03
2022-08-27T14:03:50.859Z,29.12
2022-08-27T14:06:45.219Z,29.19
2022-08-27T14:09:28.587Z,29.30
2022-08-27T14:12:03.394Z,29.27
2022-08-27T14:14:35.841Z,28.94
2022-08-27T14:17:04.509Z,28.64
2022-08-27T14:19:36.937Z,28.40
2022-08-27T14:22:04.353Z,28.24
2022-08-27T14:24:30.919Z,28.07
2022-08-27T14:27:07.758Z,27.93
2022-08-27T14:29:34.338Z,28.06
2022-08-27T14:32:00.814Z,28.19
2022-08-27T14:34:27.373Z,28.15
2022-08-27T14:36:54.981Z,27.90
2022-08-27T14:39:21.979Z,27.79
2022-08-27T14:41:53.108Z,27.73
2022-08-27T14:44:21.200Z,27.58
2022-08-27T14:46:47.857Z,27.49
2022-08-27T14:49:22.024Z,27.52
2022-08-27T14:51:49.055Z,27.53
2022-08-27T14:54:15.606Z,27.57
2022-08-27T14:56:42.108Z,27.57
2022-08-27T14:59:08.695Z,27.60
2022-08-27T15:01:38.058Z,27.64
2022-08-27T15:04:06.248Z,27.80
2022-08-27T15:06:32.811Z,27.96
2022-08-27T15:09:00.360Z,27.98
2022-08-27T15:11:31.408Z,27.82
2022-08-27T15:14:00.614Z,27.74
2022-08-27T15:16:33.180Z,27.59
2022-08-27T15:19:01.566Z,27.55
2022-08-27T15:21:30.438Z,27.59
2022-08-27T15:24:00.647Z,27.73
2022-08-27T15:26:28.136Z,27.78
2022-08-27T15:28:55.101Z,27.62
2022-08-27T15:31:21.802Z,27.35
2022-08-27T15:33:48.421Z,27.18
2022-08-27T15:36:15.088Z,27.15
2022-08-27T15:38:41.628Z,27.13
2022-08-27T15:41:10.232Z,27.14
2022-08-27T15:43:37.886Z,27.30
2022-08-27T15:46:05.397Z,27.50
2022-08-27T15:48:32.072Z,27.70
2022-08-27T15:51:04.717Z,27.88
2022-08-27T15:53:31.315Z,28.02
2022-08-27T15:55:58.072Z,28.02
2022-08-27T15:58:24.592Z,27.99
2022-08-27T16:01:01.587Z,28.06
2022-08-27T16:03:35.442Z,28.09
2022-08-27T16:06:05.058Z,28.13
2022-08-27T16:08:32.435Z,28.13
2022-08-27T16:11:03.858Z,28.19
2022-08-27T16:13:31.011Z,28.22
2022-08-27T16:15:57.919Z,28.21
2022-08-27T16:18:31.613Z,28.13
2022-08-27T16:21:01.065Z,28.04
2022-08-27T16:23:28.756Z,27.96
2022-08-27T16:25:56.079Z,27.80
2022-08-27T16:28:24.039Z,27.67
2022-08-27T16:30:52.849Z,27.57
2022-08-27T16:33:20.805Z,27.42
2022-08-27T16:35:48.295Z,27.32
2022-08-27T16:38:15.156Z,27.21
2022-08-27T16:40:44.819Z,27.06
2022-08-27T16:43:14.731Z,26.83
2022-08-27T16:45:41.952Z,26.57
2022-08-27T16:48:27.073Z,26.41
2022-08-27T16:50:53.587Z,26.32
2022-08-27T16:53:22.084Z,26.25
2022-08-27T16:55:50.824Z,26.17
2022-08-27T16:58:24.193Z,26.02
2022-08-27T17:00:56.747Z,25.92
2022-08-27T17:03:25.096Z,25.90
2022-08-27T17:05:52.251Z,25.84
2022-08-27T17:08:21.736Z,25.70
2022-08-27T17:10:55.363Z,25.70
2022-08-27T17:13:28.354Z,25.58
2022-08-27T17:15:56.114Z,25.53
2022-08-27T17:18:27.197Z,25.52
2022-08-27T17:20:55.359Z,25.50
2022-08-27T17:23:29.501Z,25.48
2022-08-27T17:25:56.236Z,25.47
2022-08-27T17:28:22.734Z,25.44
2022-08-27T17:30:49.286Z,25.41
2022-08-27T17:33:38.910Z,25.42
2022-08-27T17:36:07.523Z,25.38
2022-08-27T17:38:37.433Z,25.26
2022-08-27T17:41:16.212Z,25.09
2022-08-27T17:43:42.832Z,24.92
2022-08-27T17:46:09.654Z,24.78
2022-08-27T17:48:36.261Z,24.50
2022-08-27T17:51:03.923Z,24.27
2022-08-27T17:53:30.530Z,24.13
2022-08-27T17:55:57.017Z,23.98
2022-08-27T17:58:23.515Z,23.86
2022-08-27T18:00:50.036Z,23.71
2022-08-27T18:03:20.014Z,23.54
2022-08-27T18:05:48.031Z,23.35
2022-08-27T18:08:14.945Z,23.17
2022-08-27T18:10:42.646Z,23.06
2022-08-27T18:13:10.456Z,22.88
2022-08-27T18:15:41.098Z,22.74
2022-08-27T18:18:09.915Z,22.61
2022-08-27T18:20:36.992Z,22.47
2022-08-27T18:23:08.319Z,22.35
2022-08-27T18:25:37.572Z,22.25
2022-08-27T18:28:07.642Z,22.16
2022-08-27T18:30:34.935Z,22.08
2022-08-27T18:33:02.507Z,22.00
2022-08-27T18:35:31.851Z,21.95
2022-08-27T18:37:58.849Z,21.85
2022-08-27T18:40:30.450Z,21.79
2022-08-27T18:42:57.742Z,21.70
2022-08-27T18:45:28.643Z,21.60
2022-08-27T18:47:59.126Z,21.51
2022-08-27T18:50:26.621Z,21.43
2022-08-27T18:52:55.013Z,21.37
2022-08-27T18:55:25.648Z,21.36
2022-08-27T18:57:52.519Z,21.31
2022-08-27T19:00:20.189Z,21.30
2022-08-27T19:02:52.401Z,21.27
2022-08-27T19:05:25.103Z,21.22
2022-08-27T19:07:51.929Z,21.21
2022-08-27T19:10:19.254Z,21.16
2022-08-27T19:12:47.356Z,21.15
2022-08-27T19:15:14.234Z,21.16
2022-08-27T19:17:43.560Z,21.20
2022-08-27T19:20:11.466Z,21.23
2022-08-27T19:22:38.339Z,21.25
2022-08-27T19:25:07.271Z,21.23
2022-08-27T19:27:34.430Z,21.22
2022-08-27T19:30:00.897Z,21.21
2022-08-27T19:32:27.447Z,21.19
2022-08-27T19:34:53.967Z,21.19
2022-08-27T19:37:25.349Z,21.20
2022-08-27T19:39:52.596Z,21.19
2022-08-27T19:42:19.184Z,21.18
2022-08-27T19:44:45.866Z,21.18
2022-08-27T19:47:14.614Z,21.20
2022-08-27T19:49:41.913Z,21.21
2022-08-27T19:52:08.766Z,21.22
2022-08-27T19:54:43.146Z,21.20
2022-08-27T19:57:18.895Z,21.13
2022-08-27T19:59:45.646Z,21.13
2022-08-27T20:02:12.565Z,21.12
2022-08-27T20:04:56.022Z,21.13
2022-08-27T20:07:26.537Z,21.12
2022-08-27T20:09:53.054Z,21.13
2022-08-27T20:12:21.738Z,21.13
2022-08-27T20:14:51.201Z,21.14
2022-08-27T20:17:18.603Z,21.12
2022-08-27T20:19:45.380Z,21.13
2022-08-27T20:22:13.120Z,21.16
2022-08-27T20:24:39.682Z,21.18
2022-08-27T20:27:06.223Z,21.17
2022-08-27T20:29:33.172Z,21.18
2022-08-27T20:32:00.215Z,21.19
2022-08-27T20:34:29.396Z,21.19
2022-08-27T20:36:56.083Z,21.18
2022-08-27T20:39:22.594Z,21.16
2022-08-27T20:41:49.090Z,21.18
2022-08-27T20:44:16.997Z,21.19
2022-08-27T20:46:45.568Z,21.21
2022-08-27T20:49:17.513Z,21.19
2022-08-27T20:51:51.139Z,21.20
2022-08-27T20:54:30.212Z,21.19
2022-08-27T20:56:58.799Z,21.20
2022-08-27T20:59:44.311Z,21.18
2022-08-27T21:02:12.716Z,21.13
2022-08-27T21:04:48.363Z,21.11
2022-08-27T21:07:16.842Z,21.12
2022-08-27T21:09:55.502Z,21.14
2022-08-27T21:12:25.873Z,21.17
2022-08-27T21:14:55.667Z,21.19
2022-08-27T21:17:24.445Z,21.21
2022-08-27T21:19:51.071Z,21.23
2022-08-27T21:22:18.068Z,21.20
2022-08-27T21:24:47.086Z,21.16
2022-08-27T21:27:17.885Z,21.14
2022-08-27T21:29:45.045Z,21.13
2022-08-27T21:32:12.081Z,21.11
2022-08-27T21:34:38.638Z,21.08
2022-08-27T21:37:05.182Z,21.08
2022-08-27T21:39:33.110Z,21.10
2022-08-27T21:42:01.488Z,21.12
2022-08-27T21:44:29.787Z,21.10
2022-08-27T21:46:56.780Z,21.08
2022-08-27T21:49:23.596Z,21.09
2022-08-27T21:51:50.138Z,21.11
2022-08-27T21:54:16.671Z,21.07
2022-08-27T21:56:43.266Z,20.99
2022-08-27T21:59:10.055Z,20.87
2022-08-27T22:01:36.696Z,20.75
2022-08-27T22:04:03.670Z,20.70
2022-08-27T22:06:30.287Z,20.67
2022-08-27T22:08:56.876Z,20.61
2022-08-27T22:11:24.474Z,20.59
2022-08-27T22:13:52.413Z,20.57
2022-08-27T22:16:19.405Z,20.51
2022-08-27T22:18:46.063Z,20.46
2022-08-27T22:21:13.394Z,20.44
2022-08-27T22:23:42.243Z,20.44
2022-08-27T22:26:12.044Z,20.43
2022-08-27T22:28:38.652Z,20.41
2022-08-27T22:31:07.288Z,20.29
2022-08-27T22:33:34.109Z,20.21
2022-08-27T22:36:00.640Z,20.18
2022-08-27T22:38:27.182Z,20.19
2022-08-27T22:40:53.696Z,20.21
2022-08-27T22:43:20.334Z,20.23
2022-08-27T22:45:46.865Z,20.22
2022-08-27T22:48:13.676Z,20.22
2022-08-27T22:50:40.614Z,20.22
2022-08-27T22:53:07.480Z,20.20
2022-08-27T22:55:34.505Z,20.17
2022-08-27T22:58:02.073Z,20.11
2022-08-27T23:00:35.328Z,20.06
2022-08-27T23:03:05.381Z,19.99
2022-08-27T23:05:41.896Z,19.96
2022-08-27T23:08:11.045Z,19.96
2022-08-27T23:10:38.508Z,19.94
2022-08-27T23:13:06.859Z,19.91
2022-08-27T23:15:33.526Z,19.86
2022-08-27T23:18:01.441Z,19.83
2022-08-27T23:20:29.529Z,19.76
2022-08-27T23:22:56.945Z,19.69
2022-08-27T23:25:44.037Z,19.64
2022-08-27T23:28:14.867Z,19.59
2022-08-27T23:30:42.910Z,19.59
2022-08-27T23:33:09.759Z,19.57
2022-08-27T23:35:36.442Z,19.54
2022-08-27T23:38:03.715Z,19.51
2022-08-27T23:40:30.393Z,19.46
2022-08-27T23:42:57.040Z,19.41
2022-08-27T23:45:25.863Z,19.41
2022-08-27T23:47:52.585Z,19.40
2022-08-27T23:50:20.360Z,19.37
2022-08-27T23:52:49.707Z,19.38
2022-08-27T23:55:16.276Z,19.38
2022-08-27T23:57:43.407Z,19.31
